createdAt,value
2023-04-14T00:03:20.077Z,6.49
2023-04-14T00:08:21.930Z,6.46
2023-04-14T00:13:23.589Z,6.57
2023-04-14T00:18:25.416Z,6.49
2023-04-14T00:23:27.055Z,6.49
2023-04-14T00:28:28.653Z,6.40
2023-04-14T00:33:30.430Z,6.39
2023-04-14T00:38:32.031Z,6.41
2023-04-14T00:43:35.722Z,6.30
2023-04-14T00:48:38.210Z,6.29
2023-04-14T00:53:40.442Z,6.24
2023-04-14T00:58:42.226Z,6.14
2023-04-14T01:03:44.379Z,5.99
2023-04-14T01:08:46.610Z,5.92
2023-04-14T01:14:04.335Z,5.91
2023-04-14T01:19:25.002Z,5.97
2023-04-14T01:24:41.015Z,5.86
2023-04-14T01:30:00.922Z,5.94
2023-04-14T01:35:13.330Z,5.99
2023-04-14T01:40:17.991Z,5.87
2023-04-14T01:45:24.542Z,5.86
2023-04-14T01:50:28.737Z,5.77
2023-04-14T01:55:31.989Z,5.72
2023-04-14T02:00:36.716Z,5.62
2023-04-14T02:05:40.113Z,5.72
2023-04-14T02:10:46.070Z,5.72
2023-04-14T02:15:49.363Z,5.69
2023-04-14T02:20:56.249Z,5.72
2023-04-14T02:26:30.014Z,5.71
2023-04-14T02:31:35.926Z,5.64
2023-04-14T02:36:48.296Z,5.57
2023-04-14T02:41:59.123Z,5.55
2023-04-14T02:47:10.187Z,5.48
2023-04-14T02:52:20.342Z,5.57
2023-04-14T02:57:23.516Z,5.56
2023-04-14T03:02:27.827Z,5.54
2023-04-14T03:07:37.986Z,5.57
2023-04-14T03:12:42.189Z,5.63
2023-04-14T03:17:48.736Z,5.51
2023-04-14T03:23:01.222Z,5.46
2023-04-14T03:28:13.609Z,5.47
2023-04-14T03:33:20.567Z,5.55
2023-04-14T03:38:26.401Z,5.51
2023-04-14T03:43:28.689Z,5.57
2023-04-14T03:48:44.260Z,5.59
2023-04-14T03:53:51.954Z,5.54
2023-04-14T03:58:55.933Z,5.44
2023-04-14T04:04:06.073Z,5.45
2023-04-14T04:09:11.666Z,5.34
2023-04-14T04:14:16.485Z,5.40
2023-04-14T04:19:21.989Z,5.40
2023-04-14T04:24:26.425Z,5.33
2023-04-14T04:29:29.158Z,5.26
2023-04-14T04:34:32.336Z,5.24
2023-04-14T04:39:37.915Z,5.30
2023-04-14T04:44:40.183Z,5.21
2023-04-14T04:49:41.951Z,5.19
2023-04-14T04:54:44.020Z,5.26
2023-04-14T04:59:46.561Z,5.15
2023-04-14T05:04:48.854Z,5.11
2023-04-14T05:09:50.806Z,5.04
2023-04-14T05:14:52.412Z,5.09
2023-04-14T05:19:54.118Z,5.10
2023-04-14T05:24:55.701Z,5.10
2023-04-14T05:29:57.508Z,5.18
2023-04-14T05:34:59.689Z,5.23
2023-04-14T05:40:01.461Z,5.32
2023-04-14T05:45:06.221Z,5.34
2023-04-14T05:50:08.511Z,5.48
2023-04-14T05:55:10.871Z,5.46
2023-04-14T06:00:14.419Z,5.38
2023-04-14T06:05:16.932Z,5.51
2023-04-14T06:10:18.679Z,5.63
2023-04-14T06:15:20.716Z,5.60
2023-04-14T06:20:22.382Z,5.52
2023-04-14T06:25:24.497Z,5.76
2023-04-14T06:30:28.563Z,5.68
2023-04-14T06:35:33.848Z,5.76
2023-04-14T06:40:35.863Z,6.00
2023-04-14T06:45:37.554Z,6.09
2023-04-14T06:50:39.149Z,6.04
2023-04-14T06:55:41.867Z,6.05
2023-04-14T07:00:43.561Z,6.09
2023-04-14T07:05:45.167Z,6.30
2023-04-14T07:10:47.870Z,6.34
2023-04-14T07:15:49.555Z,6.63
2023-04-14T07:20:52.639Z,6.75
2023-04-14T07:25:57.140Z,7.00
2023-04-14T07:30:59.032Z,7.02
2023-04-14T07:36:03.487Z,7.12
2023-04-14T07:41:07.041Z,7.20
2023-04-14T07:46:08.857Z,7.51
2023-04-14T07:51:12.138Z,7.61
2023-04-14T07:56:15.695Z,7.82
2023-04-14T08:01:17.543Z,7.89
2023-04-14T08:06:20.615Z,8.09
2023-04-14T08:11:22.431Z,8.47
2023-04-14T08:16:25.252Z,8.61
2023-04-14T08:21:27.864Z,8.71
2023-04-14T08:26:29.516Z,8.98
2023-04-14T08:31:33.180Z,9.32
2023-04-14T08:36:36.772Z,9.43
2023-04-14T08:41:41.566Z,9.59
2023-04-14T08:46:44.951Z,9.76
2023-04-14T08:51:48.270Z,9.85
2023-04-14T08:56:50.578Z,9.91
2023-04-14T09:01:53.292Z,10.27
2023-04-14T09:06:56.849Z,10.45
2023-04-14T09:11:58.668Z,10.61
2023-04-14T09:17:00.633Z,10.70
2023-04-14T09:22:02.430Z,10.85
2023-04-14T09:27:06.834Z,11.25
2023-04-14T09:32:09.365Z,11.45
2023-04-14T09:37:11.113Z,11.51
2023-04-14T09:42:12.710Z,11.48
2023-04-14T09:47:17.183Z,11.24
2023-04-14T09:52:18.770Z,11.43
2023-04-14T09:57:26.864Z,11.55
2023-04-14T10:02:28.753Z,11.59
2023-04-14T10:07:30.999Z,11.63
2023-04-14T10:12:32.757Z,11.47
2023-04-14T10:17:34.588Z,11.41
2023-04-14T10:22:41.941Z,11.48
2023-04-14T10:27:45.193Z,11.67
2023-04-14T10:32:48.024Z,12.01
2023-04-14T10:37:55.001Z,12.29
2023-04-14T10:42:57.371Z,12.31
2023-04-14T10:47:59.455Z,12.52
2023-04-14T10:53:09.277Z,12.27
2023-04-14T10:58:20.097Z,12.73
2023-04-14T11:03:21.858Z,12.94
2023-04-14T11:08:35.867Z,13.10
2023-04-14T11:13:39.102Z,12.84
2023-04-14T11:18:46.246Z,13.04
2023-04-14T11:23:49.205Z,13.15
2023-04-14T11:28:53.253Z,13.04
2023-04-14T11:33:55.480Z,12.82
2023-04-14T11:39:02.310Z,12.65
2023-04-14T11:44:04.295Z,12.72
2023-04-14T11:49:06.063Z,12.63
2023-04-14T11:54:07.881Z,12.37
2023-04-14T11:59:10.107Z,12.92
2023-04-14T12:04:12.467Z,12.95
2023-04-14T12:09:14.302Z,13.18
2023-04-14T12:14:17.495Z,12.88
2023-04-14T12:19:19.160Z,12.66
2023-04-14T12:24:20.826Z,12.67
2023-04-14T12:29:23.935Z,12.70
2023-04-14T12:34:26.886Z,13.17
2023-04-14T12:39:30.981Z,13.40
2023-04-14T12:44:32.661Z,13.76
2023-04-14T12:49:36.805Z,13.15
2023-04-14T12:54:48.937Z,13.14
2023-04-14T12:59:50.768Z,13.47
2023-04-14T13:04:52.448Z,13.66
2023-04-14T13:09:54.237Z,13.99
2023-04-14T13:14:55.881Z,13.64
2023-04-14T13:19:57.696Z,14.07
2023-04-14T13:25:00.535Z,14.36
2023-04-14T13:30:02.207Z,14.33
2023-04-14T13:35:04.162Z,14.13
2023-04-14T13:40:07.145Z,13.83
2023-04-14T13:45:09.475Z,13.75
2023-04-14T13:50:11.853Z,14.20
2023-04-14T13:55:13.683Z,14.25
2023-04-14T14:00:19.258Z,14.42
2023-04-14T14:05:20.889Z,14.73
2023-04-14T14:10:22.698Z,14.70
2023-04-14T14:15:24.301Z,15.00
2023-04-14T14:20:26.136Z,15.28
2023-04-14T14:25:29.252Z,15.27
2023-04-14T14:30:31.117Z,15.30
2023-04-14T14:35:32.713Z,15.29
2023-04-14T14:40:34.396Z,14.65
2023-04-14T14:45:37.331Z,14.93
2023-04-14T14:50:39.043Z,15.28
2023-04-14T14:55:40.721Z,14.88
2023-04-14T15:00:42.380Z,15.05
2023-04-14T15:05:44.181Z,14.83
2023-04-14T15:10:46.309Z,15.09
2023-04-14T15:15:47.998Z,15.23
2023-04-14T15:20:56.098Z,15.44
2023-04-14T15:25:57.723Z,14.67
2023-04-14T15:30:59.398Z,14.60
2023-04-14T15:36:01.618Z,14.71
2023-04-14T15:41:04.428Z,14.69
2023-04-14T15:46:06.942Z,14.64
2023-04-14T15:51:08.660Z,14.68
2023-04-14T15:56:11.614Z,14.80
2023-04-14T16:01:13.318Z,15.04
2023-04-14T16:06:14.982Z,14.92
2023-04-14T16:11:16.735Z,14.80
2023-04-14T16:16:18.812Z,14.82
2023-04-14T16:21:21.078Z,14.62
2023-04-14T16:26:23.823Z,14.52
2023-04-14T16:31:25.479Z,14.52
2023-04-14T16:36:27.306Z,14.48
2023-04-14T16:41:29.188Z,14.25
2023-04-14T16:46:31.431Z,14.53
2023-04-14T16:51:33.929Z,14.62
2023-04-14T16:56:38.179Z,14.52
2023-04-14T17:01:39.972Z,14.24
2023-04-14T17:06:41.779Z,14.14
2023-04-14T17:11:43.531Z,13.96
2023-04-14T17:16:45.284Z,13.96
2023-04-14T17:21:47.040Z,13.79
2023-04-14T17:26:49.306Z,13.59
2023-04-14T17:31:51.283Z,13.47
2023-04-14T17:36:54.214Z,13.31
2023-04-14T17:41:58.101Z,13.28
2023-04-14T17:47:06.885Z,13.03
2023-04-14T17:52:10.517Z,13.06
2023-04-14T17:57:13.306Z,12.97
2023-04-14T18:02:16.016Z,12.97
2023-04-14T18:07:17.853Z,12.89
2023-04-14T18:12:22.746Z,12.87
2023-04-14T18:17:24.909Z,12.90
2023-04-14T18:22:27.457Z,12.87
2023-04-14T18:32:33.764Z,12.82
2023-04-14T18:37:36.099Z,12.83
2023-04-14T18:42:39.079Z,12.65
2023-04-14T18:47:43.129Z,12.59
2023-04-14T18:52:44.827Z,12.56
2023-04-14T18:57:46.693Z,12.58
2023-04-14T19:02:48.619Z,12.45
2023-04-14T19:07:50.736Z,12.43
2023-04-14T19:12:52.570Z,12.28
2023-04-14T19:17:55.740Z,12.09
2023-04-14T19:22:58.476Z,12.02
2023-04-14T19:28:02.181Z,11.89
2023-04-14T19:33:03.987Z,11.86
2023-04-14T19:38:06.022Z,11.91
2023-04-14T19:43:08.600Z,11.88
2023-04-14T19:53:19.568Z,11.88
2023-04-14T19:58:22.024Z,11.89
2023-04-14T20:03:24.474Z,11.89
2023-04-14T20:08:30.567Z,11.84
2023-04-14T20:13:34.892Z,11.85
2023-04-14T20:18:38.336Z,11.78
2023-04-14T20:23:40.208Z,11.71
2023-04-14T20:28:42.899Z,11.65
2023-04-14T20:33:45.623Z,11.59
2023-04-14T20:38:47.248Z,11.57
2023-04-14T20:43:48.886Z,11.49
2023-04-14T20:48:50.646Z,11.48
2023-04-14T20:53:52.324Z,11.42
2023-04-14T20:58:54.474Z,11.37
2023-04-14T21:03:56.372Z,11.35
2023-04-14T21:08:58.129Z,11.33
2023-04-14T21:15:42.386Z,11.31
2023-04-14T21:19:21.410Z,11.30
2023-04-14T21:24:23.936Z,11.20
2023-04-14T21:29:25.576Z,11.24
2023-04-14T21:34:27.463Z,11.21
2023-04-14T21:39:30.060Z,11.16
2023-04-14T21:44:31.726Z,11.16
2023-04-14T21:49:33.717Z,11.09
2023-04-14T21:54:35.654Z,11.01
2023-04-14T21:59:39.022Z,10.97
2023-04-14T22:04:41.068Z,10.99
2023-04-14T22:09:44.168Z,11.01
2023-04-14T22:14:46.662Z,11.00
2023-04-14T22:19:48.373Z,11.00
2023-04-14T22:24:51.757Z,10.97
2023-04-14T22:29:54.019Z,10.92
2023-04-14T22:34:55.692Z,10.96
2023-04-14T22:39:57.759Z,10.93
2023-04-14T22:44:59.457Z,10.88
2023-04-14T22:50:01.919Z,10.92
2023-04-14T22:55:03.761Z,10.84
2023-04-14T23:00:09.235Z,10.84
2023-04-14T23:05:12.998Z,10.78
2023-04-14T23:10:15.350Z,10.73
2023-04-14T23:15:17.157Z,10.75
2023-04-14T23:20:20.985Z,10.71
2023-04-14T23:25:22.637Z,10.63
2023-04-14T23:30:24.325Z,10.60
2023-04-14T23:35:26.069Z,10.58
2023-04-14T23:40:29.440Z,10.51
2023-04-14T23:45:37.524Z,10.43
2023-04-14T23:51:00.510Z,10.39
2023-04-14T23:56:00.933Z,10.37
